createdAt,value
2019-04-21T00:01:00.407Z,2.73
2019-04-21T00:03:33.198Z,2.40
2019-04-21T00:06:18.634Z,2.57
2019-04-21T00:08:44.162Z,3.10
2019-04-21T00:11:20.629Z,2.70
2019-04-21T00:13:36.812Z,2.60
2019-04-21T00:15:54.904Z,2.70
2019-04-21T00:18:42.965Z,2.60
2019-04-21T00:21:12.280Z,2.67
2019-04-21T00:23:43.686Z,2.77
2019-04-21T00:26:07.506Z,2.60
2019-04-21T00:28:54.041Z,3.00
2019-04-21T00:31:12.394Z,2.90
2019-04-21T00:33:30.070Z,2.90
2019-04-21T00:36:02.104Z,2.63
2019-04-21T00:38:51.313Z,3.30
2019-04-21T00:41:13.467Z,2.87
2019-04-21T00:43:38.811Z,2.60
2019-04-21T00:46:02.247Z,3.27
2019-04-21T00:48:44.074Z,2.90
2019-04-21T00:51:31.145Z,2.70
2019-04-21T00:53:58.511Z,2.57
2019-04-21T00:56:21.759Z,3.10
2019-04-21T00:58:48.713Z,3.00
2019-04-21T01:01:15.065Z,2.80
2019-04-21T01:03:53.001Z,2.77
2019-04-21T01:06:18.798Z,3.03
2019-04-21T01:08:41.441Z,3.00
2019-04-21T01:11:15.563Z,2.63
2019-04-21T01:13:47.036Z,3.13
2019-04-21T01:16:14.772Z,3.20
2019-04-21T01:18:36.871Z,2.57
2019-04-21T01:20:48.320Z,2.60
2019-04-21T01:23:16.643Z,2.80
2019-04-21T01:25:55.699Z,2.60
2019-04-21T01:28:29.315Z,2.97
2019-04-21T01:31:07.465Z,2.83
2019-04-21T01:33:34.890Z,2.53
2019-04-21T01:35:58.295Z,2.63
2019-04-21T01:38:38.150Z,2.57
2019-04-21T01:40:59.406Z,2.70
2019-04-21T01:43:27.781Z,2.80
2019-04-21T01:45:54.950Z,2.37
2019-04-21T01:48:21.498Z,2.60
2019-04-21T01:50:51.072Z,2.77
2019-04-21T01:53:59.537Z,3.00
2019-04-21T01:56:32.608Z,2.83
2019-04-21T01:58:51.850Z,2.80
2019-04-21T02:01:28.545Z,2.53
2019-04-21T02:03:57.024Z,2.50
2019-04-21T02:06:27.465Z,4.27
2019-04-21T02:08:57.993Z,2.90
2019-04-21T02:11:30.996Z,2.67
2019-04-21T02:14:05.329Z,2.47
2019-04-21T02:16:24.928Z,2.73
2019-04-21T02:18:51.818Z,3.27
2019-04-21T02:21:17.922Z,2.57
2019-04-21T02:23:57.484Z,2.77
2019-04-21T02:26:22.577Z,2.80
2019-04-21T02:28:55.872Z,3.13
2019-04-21T02:31:33.241Z,2.70
2019-04-21T02:34:02.711Z,2.57
2019-04-21T02:36:44.839Z,2.80
2019-04-21T02:39:16.685Z,2.97
2019-04-21T02:44:00.464Z,3.10
2019-04-21T02:46:37.382Z,2.90
2019-04-21T02:48:55.434Z,2.57
2019-04-21T02:51:27.976Z,3.20
2019-04-21T02:54:22.861Z,2.93
2019-04-21T02:56:26.406Z,3.00
2019-04-21T02:58:59.869Z,2.83
2019-04-21T03:01:46.369Z,3.47
2019-04-21T03:07:07.184Z,3.10
2019-04-21T03:09:24.078Z,2.73
2019-04-21T03:11:59.748Z,3.20
2019-04-21T03:14:35.849Z,3.03
2019-04-21T03:16:40.606Z,2.83
2019-04-21T03:19:29.831Z,3.27
2019-04-21T03:21:48.625Z,2.93
2019-04-21T03:24:29.441Z,2.80
2019-04-21T03:29:19.884Z,3.03
2019-04-21T03:39:12.020Z,3.00
2019-04-21T03:41:48.836Z,2.70
2019-04-21T03:44:28.870Z,2.87
2019-04-21T03:46:41.312Z,3.00
2019-04-21T03:49:11.818Z,2.70
2019-04-21T03:51:40.216Z,3.23
2019-04-21T04:02:06.807Z,3.03
2019-04-21T04:07:44.559Z,3.10
2019-04-21T04:10:08.355Z,3.30
2019-04-21T04:12:36.564Z,3.20
2019-04-21T04:15:00.644Z,3.77
2019-04-21T04:20:24.084Z,3.67
2019-04-21T04:22:52.615Z,3.30
2019-04-21T04:30:03.711Z,2.97
2019-04-21T04:32:28.760Z,3.30
2019-04-21T04:40:23.315Z,3.60
2019-04-21T04:42:56.241Z,3.00
2019-04-21T04:45:30.613Z,3.40
2019-04-21T04:47:59.855Z,3.63
2019-04-21T04:50:36.658Z,3.73
2019-04-21T04:53:15.700Z,3.27
2019-04-21T04:57:59.096Z,3.60
2019-04-21T05:00:28.084Z,4.13
2019-04-21T05:02:52.445Z,3.10
2019-04-21T05:08:00.226Z,3.77
2019-04-21T05:10:22.317Z,2.93
2019-04-21T05:12:44.240Z,3.77
2019-04-21T05:15:12.806Z,3.40
2019-04-21T05:20:11.520Z,3.27
2019-04-21T05:22:41.181Z,3.00
2019-04-21T05:25:00.982Z,2.67
2019-04-21T05:27:39.909Z,3.50
2019-04-21T05:30:24.053Z,3.00
2019-04-21T05:33:09.221Z,3.70
2019-04-21T05:36:04.098Z,3.53
2019-04-21T05:38:33.383Z,3.17
2019-04-21T05:40:55.156Z,3.30
2019-04-21T05:43:32.515Z,3.00
2019-04-21T05:46:10.579Z,3.40
2019-04-21T05:48:39.780Z,3.70
2019-04-21T05:51:03.737Z,3.20
2019-04-21T05:53:55.671Z,3.10
2019-04-21T05:56:10.723Z,1.07
2019-04-21T05:58:37.822Z,2.40
2019-04-21T06:01:14.873Z,1.57
2019-04-21T06:03:47.761Z,3.03
2019-04-21T06:06:14.117Z,3.47
2019-04-21T06:08:46.895Z,3.27
2019-04-21T06:11:10.473Z,3.00
2019-04-21T06:16:12.043Z,3.43
2019-04-21T06:18:46.535Z,2.67
2019-04-21T06:23:36.090Z,2.73
2019-04-21T06:26:28.819Z,2.80
2019-04-21T06:28:35.963Z,1.13
2019-04-21T06:31:12.510Z,0.87
2019-04-21T06:36:24.047Z,2.50
2019-04-21T06:38:59.701Z,3.15
2019-04-21T06:41:21.292Z,2.80
2019-04-21T06:46:21.371Z,2.30
2019-04-21T06:48:53.192Z,1.00
2019-04-21T06:51:16.975Z,0.50
2019-04-21T06:53:57.787Z,2.87
2019-04-21T06:56:14.936Z,1.13
2019-04-21T06:58:35.868Z,2.50
2019-04-21T07:01:11.779Z,2.67
2019-04-21T07:03:43.178Z,2.90
2019-04-21T07:06:09.362Z,2.77
2019-04-21T07:08:45.025Z,2.47
2019-04-21T07:11:04.085Z,2.40
2019-04-21T07:13:34.661Z,2.73
2019-04-21T07:16:04.687Z,3.30
2019-04-21T07:18:36.961Z,1.33
2019-04-21T07:21:04.667Z,2.03
2019-04-21T07:23:32.284Z,1.97
2019-04-21T07:26:05.694Z,2.70
2019-04-21T07:28:32.053Z,2.67
2019-04-21T07:31:03.846Z,2.53
2019-04-21T07:33:50.893Z,2.83
2019-04-21T07:36:01.313Z,3.00
2019-04-21T07:38:27.154Z,2.20
2019-04-21T07:40:53.911Z,2.23
2019-04-21T07:43:20.501Z,1.40
2019-04-21T07:45:49.786Z,1.53
2019-04-21T07:48:36.142Z,2.67
2019-04-21T07:51:04.605Z,2.90
2019-04-21T07:54:01.824Z,2.27
2019-04-21T07:56:09.386Z,2.80
2019-04-21T07:59:00.188Z,2.63
2019-04-21T08:01:26.836Z,1.93
2019-04-21T08:03:58.156Z,2.43
2019-04-21T08:06:40.321Z,1.90
2019-04-21T08:08:53.092Z,1.73
2019-04-21T08:11:22.518Z,0.97
2019-04-21T08:13:57.271Z,1.73
2019-04-21T08:16:24.199Z,1.10
2019-04-21T08:18:52.431Z,0.90
2019-04-21T08:21:24.584Z,2.53
2019-04-21T08:23:48.528Z,0.63
2019-04-21T08:26:24.338Z,1.87
2019-04-21T08:28:52.401Z,1.63
2019-04-21T08:31:23.706Z,2.30
2019-04-21T08:33:55.978Z,3.10
2019-04-21T08:36:25.449Z,1.50
2019-04-21T08:38:51.549Z,2.20
2019-04-21T08:41:18.163Z,1.33
2019-04-21T08:43:47.590Z,3.10
2019-04-21T08:46:20.118Z,2.57
2019-04-21T08:48:53.941Z,3.00
2019-04-21T08:51:27.033Z,2.63
2019-04-21T08:53:50.567Z,2.80
2019-04-21T08:56:31.997Z,3.13
2019-04-21T08:59:19.314Z,2.73
2019-04-21T09:01:51.904Z,0.73
2019-04-21T09:04:18.645Z,2.13
2019-04-21T09:09:17.875Z,1.33
2019-04-21T09:11:49.903Z,1.80
2019-04-21T09:14:18.506Z,2.00
2019-04-21T09:16:40.737Z,1.70
2019-04-21T09:19:11.770Z,3.20
2019-04-21T09:21:43.633Z,2.37
2019-04-21T09:24:11.480Z,1.47
2019-04-21T09:26:34.340Z,0.87
2019-04-21T09:29:03.411Z,1.17
2019-04-21T09:31:28.669Z,1.90
2019-04-21T09:33:52.010Z,2.03
2019-04-21T09:36:21.535Z,2.30
2019-04-21T09:38:58.705Z,1.00
2019-04-21T09:41:20.062Z,2.50
2019-04-21T09:43:50.103Z,2.50
2019-04-21T09:46:14.277Z,2.33
2019-04-21T09:48:49.838Z,0.67
2019-04-21T09:51:11.033Z,1.73
2019-04-21T09:53:41.781Z,1.97
2019-04-21T09:56:13.110Z,2.70
2019-04-21T09:58:44.039Z,2.60
2019-04-21T10:01:15.624Z,1.53
2019-04-21T10:03:42.810Z,1.83
2019-04-21T10:06:04.699Z,2.73
2019-04-21T10:08:31.879Z,1.50
2019-04-21T10:10:59.289Z,2.40
2019-04-21T10:13:27.426Z,2.70
2019-04-21T10:16:17.559Z,0.70
2019-04-21T10:18:46.009Z,2.50
2019-04-21T10:21:13.273Z,2.67
2019-04-21T10:23:41.514Z,2.37
2019-04-21T10:26:08.893Z,2.47
2019-04-21T10:28:37.227Z,2.40
2019-04-21T10:31:06.842Z,1.20
2019-04-21T10:33:36.756Z,1.67
2019-04-21T10:36:04.653Z,2.03
2019-04-21T10:38:38.955Z,2.77
2019-04-21T10:41:01.338Z,0.53
2019-04-21T10:43:29.228Z,2.43
2019-04-21T10:45:57.085Z,2.07
2019-04-21T10:48:25.162Z,1.33
2019-04-21T10:50:52.768Z,1.37
2019-04-21T10:53:26.758Z,2.13
2019-04-21T10:56:08.194Z,2.60
2019-04-21T10:58:28.612Z,2.50
2019-04-21T11:01:21.322Z,2.97
2019-04-21T11:03:55.959Z,2.23
2019-04-21T11:06:24.340Z,2.10
2019-04-21T11:08:55.398Z,2.37
2019-04-21T11:11:21.775Z,1.00
2019-04-21T11:13:48.894Z,1.80
2019-04-21T11:16:17.145Z,2.20
2019-04-21T11:18:44.485Z,0.83
2019-04-21T11:21:11.661Z,2.20
2019-04-21T11:23:38.839Z,0.97
2019-04-21T11:26:06.474Z,2.03
2019-04-21T11:28:34.623Z,1.50
2019-04-21T11:31:02.690Z,1.50
2019-04-21T11:33:31.200Z,1.90
2019-04-21T11:35:59.365Z,1.63
2019-04-21T11:38:58.480Z,1.73
2019-04-21T11:41:11.929Z,1.60
2019-04-21T11:43:39.217Z,1.73
2019-04-21T11:46:06.541Z,2.10
2019-04-21T11:48:34.507Z,1.47
2019-04-21T11:51:01.820Z,0.80
2019-04-21T11:53:28.923Z,0.27
2019-04-21T11:55:56.996Z,2.00
2019-04-21T11:58:26.018Z,1.93
2019-04-21T12:00:56.078Z,1.33
2019-04-21T12:03:24.357Z,2.47
2019-04-21T12:05:51.434Z,2.27
2019-04-21T12:08:29.807Z,2.33
2019-04-21T12:10:47.483Z,1.97
2019-04-21T12:13:14.684Z,1.50
2019-04-21T12:15:43.105Z,1.13
2019-04-21T12:18:12.148Z,1.90
2019-04-21T12:20:39.691Z,2.23
2019-04-21T12:23:06.891Z,1.03
2019-04-21T12:25:37.089Z,0.87
2019-04-21T12:28:05.769Z,2.60
2019-04-21T12:30:33.530Z,1.30
2019-04-21T12:33:04.397Z,2.17
2019-04-21T12:35:41.993Z,1.03
2019-04-21T12:38:09.062Z,2.27
2019-04-21T12:40:36.725Z,0.53
2019-04-21T12:43:03.898Z,2.20
2019-04-21T12:45:31.674Z,2.10
2019-04-21T12:48:00.048Z,2.30
2019-04-21T12:50:27.765Z,1.00
2019-04-21T12:52:56.097Z,2.30
2019-04-21T12:55:30.291Z,2.30
2019-04-21T12:57:53.194Z,1.27
2019-04-21T13:00:20.866Z,1.17
2019-04-21T13:02:47.962Z,2.20
2019-04-21T13:05:15.807Z,1.63
2019-04-21T13:07:43.697Z,1.20
2019-04-21T13:10:10.991Z,1.30
2019-04-21T13:12:38.051Z,1.80
2019-04-21T13:15:06.504Z,0.67
2019-04-21T13:17:33.734Z,0.80
2019-04-21T13:20:01.266Z,2.03
2019-04-21T13:22:30.247Z,2.47
2019-04-21T13:24:58.020Z,1.20
2019-04-21T13:27:26.789Z,1.50
2019-04-21T13:29:54.556Z,0.97
2019-04-21T13:32:21.722Z,2.10
2019-04-21T13:34:48.826Z,0.27
2019-04-21T13:37:17.259Z,0.53
2019-04-21T13:40:24.937Z,1.13
2019-04-21T13:42:43.892Z,1.93
2019-04-21T13:45:06.399Z,1.30
2019-04-21T13:47:34.737Z,1.37
2019-04-21T13:50:03.656Z,1.60
2019-04-21T13:52:31.186Z,2.17
2019-04-21T13:54:58.260Z,0.97
2019-04-21T13:57:26.340Z,1.30
2019-04-21T13:59:54.812Z,0.97
2019-04-21T14:02:22.619Z,1.37
2019-04-21T14:04:51.464Z,1.33
2019-04-21T14:07:18.874Z,1.07
2019-04-21T14:09:55.226Z,1.83
2019-04-21T14:12:15.101Z,1.17
2019-04-21T14:14:42.199Z,1.60
2019-04-21T14:17:10.786Z,1.50
2019-04-21T14:19:39.331Z,1.70
2019-04-21T14:22:11.618Z,1.00
2019-04-21T14:24:38.709Z,0.87
2019-04-21T14:27:08.068Z,0.50
2019-04-21T14:29:35.542Z,1.20
2019-04-21T14:32:06.375Z,1.67
2019-04-21T14:34:33.999Z,1.57
2019-04-21T14:37:08.685Z,0.40
2019-04-21T14:39:48.519Z,0.40
2019-04-21T14:42:04.862Z,0.77
2019-04-21T14:44:33.190Z,0.57
2019-04-21T14:47:18.887Z,0.87
2019-04-21T14:50:15.577Z,0.70
2019-04-21T14:52:44.269Z,1.30
2019-04-21T14:55:16.649Z,0.73
2019-04-21T14:57:45.182Z,1.53
2019-04-21T15:00:15.467Z,0.67
2019-04-21T15:02:43.558Z,1.30
2019-04-21T15:05:11.619Z,0.30
2019-04-21T15:07:41.337Z,1.07
2019-04-21T15:10:18.449Z,1.30
2019-04-21T15:12:43.643Z,1.30
2019-04-21T15:15:13.622Z,0.90
2019-04-21T15:17:44.143Z,1.17
2019-04-21T15:20:15.787Z,1.10
2019-04-21T15:22:40.314Z,0.27
2019-04-21T15:25:16.199Z,0.80
2019-04-21T15:27:46.660Z,0.40
2019-04-21T15:30:16.195Z,0.83
2019-04-21T15:32:44.460Z,0.50
2019-04-21T15:35:13.158Z,0.60
2019-04-21T15:37:40.364Z,0.80
2019-04-21T15:40:18.087Z,1.03
2019-04-21T15:42:36.937Z,0.73
2019-04-21T15:45:06.103Z,1.40
2019-04-21T15:47:33.799Z,1.33
2019-04-21T15:50:07.465Z,0.60
2019-04-21T15:52:30.151Z,1.47
2019-04-21T15:55:03.347Z,0.67
2019-04-21T15:57:37.744Z,0.90
2019-04-21T16:00:40.470Z,1.57
2019-04-21T16:03:06.813Z,0.40
2019-04-21T16:05:35.110Z,1.10
2019-04-21T16:08:05.891Z,1.47
2019-04-21T16:10:50.149Z,1.23
2019-04-21T16:13:11.794Z,1.67
2019-04-21T16:15:39.119Z,1.60
2019-04-21T16:18:06.293Z,1.03
2019-04-21T16:20:33.853Z,0.43
2019-04-21T16:23:02.234Z,0.93
2019-04-21T16:25:30.579Z,1.43
2019-04-21T16:27:59.472Z,1.33
2019-04-21T16:30:26.844Z,0.20
2019-04-21T16:32:54.432Z,2.07
2019-04-21T16:35:22.122Z,1.40
2019-04-21T16:37:50.768Z,1.77
2019-04-21T16:40:21.266Z,2.10
2019-04-21T16:42:48.358Z,1.20
2019-04-21T16:45:16.911Z,2.00
2019-04-21T16:47:44.273Z,0.80
2019-04-21T16:50:14.210Z,1.83
2019-04-21T16:52:46.323Z,1.83
2019-04-21T16:55:23.202Z,2.00
2019-04-21T16:58:04.450Z,0.60
2019-04-21T17:00:35.208Z,2.00
2019-04-21T17:02:54.797Z,1.17
2019-04-21T17:05:22.413Z,1.23
2019-04-21T17:07:52.688Z,1.70
2019-04-21T17:10:18.650Z,1.70
2019-04-21T17:12:48.011Z,1.40
2019-04-21T17:15:34.081Z,1.30
2019-04-21T17:18:06.406Z,1.60
2019-04-21T17:20:28.573Z,1.90
2019-04-21T17:22:43.856Z,0.70
2019-04-21T17:25:11.211Z,1.90
2019-04-21T17:27:38.997Z,0.30
2019-04-21T17:30:08.455Z,1.83
2019-04-21T17:32:40.808Z,1.93
2019-04-21T17:35:05.992Z,1.00
2019-04-21T17:37:34.153Z,0.53
2019-04-21T17:40:05.608Z,1.87
2019-04-21T17:42:42.174Z,1.33
2019-04-21T17:45:01.449Z,1.80
2019-04-21T17:47:41.756Z,1.70
2019-04-21T17:50:20.786Z,1.67
2019-04-21T17:52:58.129Z,1.83
2019-04-21T17:55:29.070Z,1.63
2019-04-21T17:58:10.936Z,1.93
2019-04-21T18:01:06.472Z,1.87
2019-04-21T18:03:26.891Z,1.60
2019-04-21T18:05:42.202Z,1.90
2019-04-21T18:08:14.252Z,1.60
2019-04-21T18:10:39.001Z,2.00
2019-04-21T18:13:02.332Z,1.90
2019-04-21T18:15:38.374Z,0.87
2019-04-21T18:17:50.640Z,2.05
2019-04-21T18:20:27.971Z,2.00
2019-04-21T18:23:32.428Z,1.77
2019-04-21T18:25:54.900Z,1.70
2019-04-21T18:28:16.669Z,1.70
2019-04-21T18:30:48.770Z,2.00
2019-04-21T18:33:25.359Z,1.90
2019-04-21T18:36:20.138Z,1.80
2019-04-21T18:39:12.594Z,1.20
2019-04-21T18:41:23.955Z,1.53
2019-04-21T18:44:21.302Z,1.67
2019-04-21T18:47:03.691Z,2.30
2019-04-21T18:49:17.555Z,1.63
2019-04-21T18:52:04.023Z,1.67
2019-04-21T18:54:47.299Z,1.97
2019-04-21T18:57:08.255Z,1.77
2019-04-21T18:59:33.663Z,2.53
2019-04-21T19:02:04.246Z,1.63
2019-04-21T19:04:33.266Z,1.90
2019-04-21T19:07:15.570Z,1.67
2019-04-21T19:12:23.655Z,1.23
2019-04-21T19:17:48.535Z,1.57
2019-04-21T19:22:11.830Z,1.80
2019-04-21T19:24:59.416Z,1.27
2019-04-21T19:29:42.497Z,1.80
2019-04-21T19:32:16.040Z,1.57
2019-04-21T19:34:26.500Z,1.70
2019-04-21T19:37:00.061Z,2.20
2019-04-21T19:39:39.082Z,1.23
2019-04-21T19:42:03.095Z,1.73
2019-04-21T19:44:37.904Z,1.50
2019-04-21T19:47:13.242Z,1.70
2019-04-21T19:49:43.579Z,1.53
2019-04-21T19:51:58.759Z,0.70
2019-04-21T19:54:29.440Z,2.10
2019-04-21T19:56:49.101Z,1.90
2019-04-21T19:59:23.620Z,1.77
2019-04-21T20:01:48.304Z,1.77
2019-04-21T20:04:14.980Z,1.23
2019-04-21T20:06:52.033Z,1.97
2019-04-21T20:09:27.796Z,2.13
2019-04-21T20:11:53.318Z,2.20
2019-04-21T20:16:54.472Z,2.13
2019-04-21T20:19:11.767Z,2.00
2019-04-21T20:21:36.936Z,1.70
2019-04-21T20:24:10.717Z,2.37
2019-04-21T20:26:37.579Z,2.07
2019-04-21T20:29:20.741Z,2.37
2019-04-21T20:31:48.723Z,1.70
2019-04-21T20:34:26.225Z,2.17
2019-04-21T20:36:50.070Z,2.10
2019-04-21T20:39:06.076Z,2.03
2019-04-21T20:41:40.658Z,2.00
2019-04-21T20:44:21.235Z,2.10
2019-04-21T20:46:45.034Z,1.43
2019-04-21T20:49:06.931Z,0.70
2019-04-21T20:51:42.445Z,1.67
2019-04-21T20:54:17.188Z,2.40
2019-04-21T20:56:45.238Z,2.10
2019-04-21T20:59:12.172Z,0.70
2019-04-21T21:01:41.267Z,1.80
2019-04-21T21:04:06.333Z,1.93
2019-04-21T21:06:36.194Z,1.60
2019-04-21T21:09:06.096Z,1.70
2019-04-21T21:11:46.424Z,1.73
2019-04-21T21:14:07.021Z,1.80
2019-04-21T21:16:45.069Z,2.07
2019-04-21T21:19:18.450Z,1.83
2019-04-21T21:21:29.514Z,2.50
2019-04-21T21:24:05.475Z,2.27
2019-04-21T21:26:30.712Z,1.90
2019-04-21T21:28:54.733Z,2.17
2019-04-21T21:31:33.205Z,2.30
2019-04-21T21:34:25.897Z,2.30
2019-04-21T21:36:31.532Z,2.30
2019-04-21T21:38:59.916Z,2.20
2019-04-21T21:41:23.525Z,2.10
2019-04-21T21:43:41.918Z,1.70
2019-04-21T21:46:27.172Z,2.10
2019-04-21T21:48:52.937Z,2.30
2019-04-21T21:51:16.649Z,2.00
2019-04-21T21:53:39.920Z,1.90
2019-04-21T21:56:09.182Z,2.00
2019-04-21T21:58:40.331Z,2.40
2019-04-21T22:01:09.823Z,2.97
2019-04-21T22:03:40.930Z,2.00
2019-04-21T22:06:13.206Z,3.17
2019-04-21T22:08:36.512Z,2.20
2019-04-21T22:11:05.460Z,2.10
2019-04-21T22:13:42.182Z,2.17
2019-04-21T22:16:07.019Z,2.33
2019-04-21T22:18:43.958Z,2.43
2019-04-21T22:21:13.864Z,2.73
2019-04-21T22:23:39.891Z,2.27
2019-04-21T22:25:57.660Z,2.43
2019-04-21T22:28:25.501Z,2.87
2019-04-21T22:30:54.979Z,2.60
2019-04-21T22:33:23.307Z,2.40
2019-04-21T22:35:57.995Z,2.20
2019-04-21T22:38:38.488Z,2.60
2019-04-21T22:41:05.596Z,2.37
2019-04-21T22:43:28.489Z,2.60
2019-04-21T22:45:51.462Z,2.43
2019-04-21T22:48:23.648Z,2.30
2019-04-21T22:50:49.029Z,2.40
2019-04-21T22:53:17.899Z,2.80
2019-04-21T22:55:49.542Z,2.70
2019-04-21T22:58:25.747Z,2.60
2019-04-21T23:00:52.964Z,2.80
2019-04-21T23:03:21.326Z,2.50
2019-04-21T23:05:48.172Z,2.40
2019-04-21T23:08:15.084Z,2.33
2019-04-21T23:10:52.352Z,2.20
2019-04-21T23:13:17.818Z,2.00
2019-04-21T23:15:47.087Z,2.30
2019-04-21T23:18:25.981Z,2.37
2019-04-21T23:20:57.780Z,2.13
2019-04-21T23:23:30.238Z,2.27
2019-04-21T23:25:53.200Z,2.00
2019-04-21T23:28:23.982Z,2.07
2019-04-21T23:31:00.912Z,2.00
2019-04-21T23:33:08.705Z,2.50
2019-04-21T23:35:39.952Z,2.30
2019-04-21T23:38:06.814Z,2.37
2019-04-21T23:40:33.008Z,2.97
2019-04-21T23:43:09.666Z,2.30
2019-04-21T23:45:35.080Z,2.30
2019-04-21T23:48:15.610Z,1.37
2019-04-21T23:50:37.854Z,2.00
2019-04-21T23:52:57.302Z,2.17
2019-04-21T23:55:25.376Z,2.23
2019-04-21T23:58:04.989Z,2.30
